createdAt,value
2019-04-05T00:00:48.798Z,6.79
2019-04-05T00:03:17.080Z,6.86
2019-04-05T00:05:45.467Z,6.84
2019-04-05T00:08:13.806Z,6.78
2019-04-05T00:10:42.142Z,6.77
2019-04-05T00:13:10.433Z,6.76
2019-04-05T00:15:38.720Z,6.80
2019-04-05T00:18:06.996Z,6.71
2019-04-05T00:20:35.283Z,6.76
2019-04-05T00:23:03.576Z,6.62
2019-04-05T00:25:31.843Z,6.62
2019-04-05T00:28:00.127Z,6.70
2019-04-05T00:30:28.396Z,6.82
2019-04-05T00:32:56.683Z,6.67
2019-04-05T00:35:24.963Z,6.70
2019-04-05T00:37:53.257Z,6.64
2019-04-05T00:40:21.542Z,6.64
2019-04-05T00:42:49.845Z,6.65
2019-04-05T00:45:27.496Z,6.63
2019-04-05T00:47:48.152Z,6.62
2019-04-05T00:50:16.554Z,6.67
2019-04-05T00:52:44.865Z,6.67
2019-04-05T00:55:13.139Z,6.71
2019-04-05T00:57:41.409Z,6.73
2019-04-05T01:00:09.937Z,6.70
2019-04-05T01:02:38.246Z,6.71
2019-04-05T01:05:42.487Z,6.58
2019-04-05T01:08:10.841Z,6.62
2019-04-05T01:10:39.111Z,6.67
2019-04-05T01:13:07.405Z,6.77
2019-04-05T01:15:41.163Z,6.79
2019-04-05T01:18:05.687Z,6.66
2019-04-05T01:21:09.822Z,6.78
2019-04-05T01:24:15.546Z,6.87
2019-04-05T01:27:21.265Z,6.70
2019-04-05T01:30:06.804Z,6.78
2019-04-05T01:32:35.088Z,6.78
2019-04-05T01:35:17.708Z,6.78
2019-04-05T01:38:23.917Z,6.86
2019-04-05T01:40:52.281Z,6.68
2019-04-05T01:43:20.724Z,6.73
2019-04-05T01:45:53.818Z,6.71
2019-04-05T01:48:19.121Z,6.72
2019-04-05T01:50:47.397Z,6.69
2019-04-05T01:53:15.690Z,6.61
2019-04-05T01:55:43.976Z,6.68
2019-04-05T01:58:12.256Z,6.76
2019-04-05T02:00:40.549Z,6.85
2019-04-05T02:03:08.848Z,6.58
2019-04-05T02:05:37.142Z,6.64
2019-04-05T02:08:05.604Z,6.70
2019-04-05T02:10:33.880Z,6.55
2019-04-05T02:13:02.164Z,6.58
2019-04-05T02:16:06.982Z,6.72
2019-04-05T02:18:35.373Z,6.56
2019-04-05T02:21:03.751Z,6.59
2019-04-05T02:23:32.029Z,6.59
2019-04-05T02:26:00.310Z,6.58
2019-04-05T02:28:28.588Z,6.66
2019-04-05T02:30:56.955Z,6.61
2019-04-05T02:33:25.236Z,6.54
2019-04-05T02:35:53.526Z,6.65
2019-04-05T02:38:21.791Z,6.65
2019-04-05T02:40:50.095Z,6.61
2019-04-05T02:43:54.446Z,6.53
2019-04-05T02:46:59.948Z,6.57
2019-04-05T02:50:03.892Z,6.43
2019-04-05T02:53:07.769Z,6.47
2019-04-05T02:55:36.206Z,6.42
2019-04-05T02:58:42.173Z,6.54
2019-04-05T03:01:10.473Z,6.53
2019-04-05T03:04:16.581Z,6.55
2019-04-05T03:10:41.736Z,6.55
2019-04-05T03:13:10.035Z,6.34
2019-04-05T03:15:38.389Z,6.31
2019-04-05T03:18:06.763Z,6.33
2019-04-05T03:20:35.047Z,6.30
2019-04-05T03:23:03.400Z,6.26
2019-04-05T03:25:31.863Z,6.32
2019-04-05T03:28:37.571Z,6.29
2019-04-05T03:31:43.310Z,6.20
2019-04-05T03:34:11.600Z,6.42
2019-04-05T03:36:40.050Z,6.43
2019-04-05T03:39:08.400Z,6.48
2019-04-05T03:42:14.271Z,6.38
2019-04-05T03:44:42.642Z,6.35
2019-04-05T03:47:10.938Z,6.57
2019-04-05T03:49:39.249Z,6.58
2019-04-05T03:52:07.516Z,6.46
2019-04-05T03:54:35.974Z,6.49
2019-04-05T03:57:40.302Z,6.58
2019-04-05T04:00:08.616Z,6.64
2019-04-05T04:02:36.963Z,6.62
2019-04-05T04:05:40.980Z,6.63
2019-04-05T04:08:09.249Z,6.63
2019-04-05T04:10:37.532Z,6.58
2019-04-05T04:13:05.820Z,6.69
2019-04-05T04:15:34.136Z,6.77
2019-04-05T04:18:40.284Z,6.69
2019-04-05T04:21:44.410Z,6.59
2019-04-05T04:24:12.702Z,6.52
2019-04-05T04:27:16.785Z,6.62
2019-04-05T04:29:45.119Z,6.59
2019-04-05T04:32:51.378Z,6.67
2019-04-05T04:35:19.782Z,6.64
2019-04-05T04:37:48.074Z,6.67
2019-04-05T04:40:16.348Z,6.68
2019-04-05T04:42:44.796Z,6.66
2019-04-05T04:45:13.208Z,6.65
2019-04-05T04:47:41.445Z,6.73
2019-04-05T04:50:43.705Z,6.84
2019-04-05T04:53:12.178Z,6.90
2019-04-05T04:55:40.525Z,6.91
2019-04-05T04:58:08.886Z,6.96
2019-04-05T05:01:10.652Z,6.80
2019-04-05T05:03:39.591Z,6.84
2019-04-05T05:06:07.981Z,6.81
2019-04-05T05:08:36.566Z,6.89
2019-04-05T05:11:14.328Z,6.91
2019-04-05T05:13:34.922Z,6.83
2019-04-05T05:16:03.231Z,6.85
2019-04-05T05:18:31.581Z,6.88
2019-04-05T05:21:00.035Z,6.84
2019-04-05T05:23:28.362Z,6.90
2019-04-05T05:25:56.655Z,6.86
2019-04-05T05:28:24.929Z,7.02
2019-04-05T05:30:53.200Z,7.10
2019-04-05T05:33:21.463Z,7.11
2019-04-05T05:35:49.866Z,7.12
2019-04-05T05:38:18.174Z,7.19
2019-04-05T05:40:46.466Z,7.16
2019-04-05T05:43:14.731Z,7.25
2019-04-05T05:45:43.030Z,7.28
2019-04-05T05:48:11.300Z,7.22
2019-04-05T05:50:39.656Z,7.22
2019-04-05T05:53:07.931Z,7.21
2019-04-05T05:55:36.211Z,7.26
2019-04-05T05:58:04.489Z,7.35
2019-04-05T06:00:32.775Z,7.43
2019-04-05T06:03:01.051Z,7.24
2019-04-05T06:05:29.373Z,7.19
2019-04-05T06:07:58.737Z,7.24
2019-04-05T06:10:27.664Z,7.21
2019-04-05T06:12:58.636Z,7.17
2019-04-05T06:15:25.935Z,7.30
2019-04-05T06:18:04.150Z,7.26
2019-04-05T06:20:24.221Z,7.26
2019-04-05T06:22:52.512Z,7.33
2019-04-05T06:25:20.796Z,7.31
2019-04-05T06:27:49.074Z,7.36
2019-04-05T06:30:17.422Z,7.51
2019-04-05T06:32:45.723Z,7.41
2019-04-05T06:35:13.981Z,7.19
2019-04-05T06:37:42.262Z,7.22
2019-04-05T06:40:10.621Z,7.25
2019-04-05T06:42:38.933Z,7.21
2019-04-05T06:45:07.382Z,7.42
2019-04-05T06:47:35.657Z,7.51
2019-04-05T06:50:39.866Z,7.60
2019-04-05T06:53:08.147Z,7.57
2019-04-05T06:55:36.420Z,7.66
2019-04-05T06:58:04.706Z,7.49
2019-04-05T07:00:33.009Z,7.32
2019-04-05T07:03:01.295Z,7.40
2019-04-05T07:05:29.582Z,7.56
2019-04-05T07:07:57.859Z,7.49
2019-04-05T07:10:26.130Z,7.51
2019-04-05T07:12:54.455Z,7.67
2019-04-05T07:15:22.765Z,7.74
2019-04-05T07:17:51.064Z,7.73
2019-04-05T07:20:19.337Z,7.76
2019-04-05T07:25:54.175Z,7.88
2019-04-05T07:28:25.003Z,7.84
2019-04-05T07:30:52.477Z,7.95
2019-04-05T07:33:20.723Z,8.00
2019-04-05T07:35:49.015Z,7.87
2019-04-05T07:38:17.297Z,7.91
2019-04-05T07:40:45.605Z,7.76
2019-04-05T07:43:13.863Z,7.98
2019-04-05T07:45:42.134Z,8.18
2019-04-05T07:48:10.421Z,8.31
2019-04-05T07:50:38.715Z,8.15
2019-04-05T07:53:07.007Z,8.40
2019-04-05T07:55:35.283Z,8.16
2019-04-05T07:58:03.566Z,8.08
2019-04-05T08:01:05.091Z,8.25
2019-04-05T08:04:09.038Z,8.13
2019-04-05T08:07:14.681Z,8.17
2019-04-05T08:09:42.972Z,8.12
2019-04-05T08:12:11.252Z,8.16
2019-04-05T08:15:16.774Z,8.34
2019-04-05T08:17:45.044Z,8.48
2019-04-05T08:20:13.388Z,8.50
2019-04-05T08:22:41.656Z,8.61
2019-04-05T08:25:10.036Z,8.51
2019-04-05T08:27:38.296Z,8.37
2019-04-05T08:30:40.416Z,8.42
2019-04-05T08:33:08.731Z,8.14
2019-04-05T08:35:36.994Z,8.37
2019-04-05T08:38:41.397Z,8.44
2019-04-05T08:41:09.686Z,8.62
2019-04-05T08:43:37.971Z,8.74
2019-04-05T08:46:06.326Z,8.71
2019-04-05T08:48:34.580Z,8.91
2019-04-05T08:53:50.314Z,8.77
2019-04-05T08:56:18.578Z,8.76
2019-04-05T08:58:46.877Z,8.69
2019-04-05T09:01:15.154Z,8.76
2019-04-05T09:03:43.691Z,8.54
2019-04-05T09:06:12.044Z,8.69
2019-04-05T09:08:40.319Z,8.81
2019-04-05T09:11:08.590Z,8.78
2019-04-05T09:13:36.878Z,8.91
2019-04-05T09:16:05.159Z,8.85
2019-04-05T09:18:33.474Z,8.98
2019-04-05T09:21:01.720Z,9.02
2019-04-05T09:23:29.991Z,9.09
2019-04-05T09:25:58.265Z,9.18
2019-04-05T09:28:26.536Z,9.09
2019-04-05T09:30:54.794Z,9.14
2019-04-05T09:33:23.068Z,9.30
2019-04-05T09:35:51.341Z,9.18
2019-04-05T09:38:19.617Z,8.98
2019-04-05T09:40:47.910Z,9.25
2019-04-05T09:43:16.182Z,9.41
2019-04-05T09:45:44.446Z,9.36
2019-04-05T09:48:12.721Z,8.90
2019-04-05T09:50:41.015Z,8.94
2019-04-05T09:53:09.300Z,9.22
2019-04-05T09:55:37.647Z,9.55
2019-04-05T09:58:05.993Z,9.63
2019-04-05T10:00:34.267Z,9.91
2019-04-05T10:03:02.560Z,9.79
2019-04-05T10:05:30.852Z,9.82
2019-04-05T10:07:59.109Z,9.52
2019-04-05T10:10:27.404Z,9.56
2019-04-05T10:12:55.676Z,9.66
2019-04-05T10:15:23.938Z,9.66
2019-04-05T10:17:52.206Z,9.31
2019-04-05T10:20:20.558Z,9.39
2019-04-05T10:22:48.837Z,9.46
2019-04-05T10:25:17.113Z,9.64
2019-04-05T10:27:45.388Z,9.80
2019-04-05T10:30:13.868Z,10.03
2019-04-05T10:32:42.142Z,10.12
2019-04-05T10:35:10.491Z,10.23
2019-04-05T10:37:38.760Z,10.37
2019-04-05T10:40:42.778Z,10.58
2019-04-05T10:43:11.064Z,10.58
2019-04-05T10:45:39.330Z,10.64
2019-04-05T10:48:07.614Z,10.64
2019-04-05T10:50:35.894Z,10.69
2019-04-05T10:53:04.189Z,10.78
2019-04-05T10:55:32.479Z,10.78
2019-04-05T10:58:00.753Z,10.90
2019-04-05T11:01:02.975Z,11.00
2019-04-05T11:03:31.256Z,10.99
2019-04-05T11:05:59.538Z,10.81
2019-04-05T11:08:27.810Z,10.76
2019-04-05T11:10:56.075Z,10.86
2019-04-05T11:13:24.340Z,10.65
2019-04-05T11:15:52.615Z,10.87
2019-04-05T11:18:20.884Z,11.04
2019-04-05T11:20:49.828Z,10.92
2019-04-05T11:23:21.384Z,10.92
2019-04-05T11:25:49.157Z,11.02
2019-04-05T11:28:17.446Z,11.07
2019-04-05T11:31:23.413Z,11.11
2019-04-05T11:33:51.746Z,11.32
2019-04-05T11:36:20.190Z,11.37
2019-04-05T11:38:50.878Z,11.52
2019-04-05T11:41:56.095Z,11.36
2019-04-05T11:45:01.928Z,11.71
2019-04-05T11:48:07.598Z,11.96
2019-04-05T11:50:35.947Z,11.89
2019-04-05T11:53:04.292Z,11.56
2019-04-05T11:55:32.561Z,11.69
2019-04-05T11:58:00.832Z,11.84
2019-04-05T12:00:48.216Z,12.05
2019-04-05T12:06:04.102Z,12.09
2019-04-05T12:08:32.321Z,11.99
2019-04-05T12:11:00.612Z,11.96
2019-04-05T12:13:28.901Z,12.00
2019-04-05T12:15:58.274Z,11.93
2019-04-05T12:18:27.162Z,11.99
2019-04-05T12:20:59.982Z,12.06
2019-04-05T12:23:25.414Z,11.99
2019-04-05T12:25:54.737Z,11.91
2019-04-05T12:28:23.692Z,12.08
2019-04-05T12:30:51.981Z,11.94
2019-04-05T12:33:20.464Z,11.92
2019-04-05T12:35:52.498Z,11.94
2019-04-05T12:38:39.400Z,11.84
2019-04-05T12:41:10.804Z,12.02
2019-04-05T12:43:37.700Z,12.04
2019-04-05T12:46:06.073Z,12.15
2019-04-05T12:48:34.356Z,11.93
2019-04-05T12:51:05.285Z,11.88
2019-04-05T12:53:32.775Z,11.92
2019-04-05T12:56:01.120Z,12.05
2019-04-05T12:58:32.469Z,11.99
2019-04-05T13:00:59.509Z,12.01
2019-04-05T13:03:27.824Z,12.03
2019-04-05T13:05:57.250Z,12.30
2019-04-05T13:08:26.154Z,12.24
2019-04-05T13:10:55.998Z,12.21
2019-04-05T13:13:26.627Z,12.25
2019-04-05T13:15:54.415Z,12.26
2019-04-05T13:18:24.947Z,12.47
2019-04-05T13:20:52.765Z,12.57
2019-04-05T13:23:21.101Z,12.77
2019-04-05T13:25:49.371Z,12.88
2019-04-05T13:28:18.991Z,12.92
2019-04-05T13:30:48.589Z,12.94
2019-04-05T13:33:17.713Z,12.74
2019-04-05T13:35:45.986Z,12.77
2019-04-05T13:38:14.287Z,12.64
2019-04-05T13:40:42.570Z,12.89
2019-04-05T13:43:10.845Z,12.83
2019-04-05T13:45:39.164Z,12.95
2019-04-05T13:48:09.075Z,13.24
2019-04-05T13:50:37.434Z,13.31
2019-04-05T13:53:05.748Z,13.30
2019-04-05T13:55:34.100Z,13.48
2019-04-05T13:58:02.379Z,13.66
2019-04-05T14:00:30.746Z,13.57
2019-04-05T14:02:59.020Z,13.61
2019-04-05T14:05:27.296Z,13.77
2019-04-05T14:08:09.139Z,13.85
2019-04-05T14:10:25.918Z,13.78
2019-04-05T14:12:54.207Z,13.73
2019-04-05T14:15:22.492Z,13.63
2019-04-05T14:17:50.768Z,13.53
2019-04-05T14:20:19.830Z,13.44
2019-04-05T14:22:51.435Z,13.43
2019-04-05T14:25:19.381Z,13.47
2019-04-05T14:27:47.667Z,13.41
2019-04-05T14:30:55.979Z,13.68
2019-04-05T14:33:24.725Z,13.71
2019-04-05T14:35:54.660Z,13.63
2019-04-05T14:38:24.322Z,13.35
2019-04-05T14:40:52.633Z,13.23
2019-04-05T14:43:21.396Z,13.14
2019-04-05T14:45:50.933Z,13.23
2019-04-05T14:48:19.203Z,13.36
2019-04-05T14:50:47.479Z,12.97
2019-04-05T14:53:15.753Z,12.92
2019-04-05T14:55:44.069Z,13.11
2019-04-05T14:58:12.355Z,13.16
2019-04-05T15:00:40.654Z,13.04
2019-04-05T15:03:08.994Z,13.16
2019-04-05T15:05:37.295Z,12.75
2019-04-05T15:08:05.576Z,12.86
2019-04-05T15:10:51.125Z,12.77
2019-04-05T15:13:19.078Z,12.68
2019-04-05T15:15:47.361Z,12.78
2019-04-05T15:18:15.633Z,12.83
2019-04-05T15:20:43.927Z,12.56
2019-04-05T15:23:31.333Z,12.37
2019-04-05T15:25:59.633Z,12.54
2019-04-05T15:28:27.899Z,12.68
2019-04-05T15:30:56.664Z,12.61
2019-04-05T15:33:27.740Z,12.61
2019-04-05T15:35:58.334Z,12.68
2019-04-05T15:38:26.263Z,12.54
2019-04-05T15:40:54.547Z,12.47
2019-04-05T15:43:22.820Z,12.35
2019-04-05T15:45:51.119Z,12.49
2019-04-05T15:48:20.481Z,12.53
2019-04-05T15:50:51.529Z,12.54
2019-04-05T15:53:19.436Z,12.48
2019-04-05T15:55:47.706Z,12.37
2019-04-05T15:58:16.004Z,12.38
2019-04-05T16:01:21.563Z,12.46
2019-04-05T16:03:49.870Z,12.22
2019-04-05T16:06:20.239Z,12.28
2019-04-05T16:08:48.528Z,12.06
2019-04-05T16:11:17.639Z,12.09
2019-04-05T16:13:46.035Z,12.00
2019-04-05T16:19:20.882Z,12.27
2019-04-05T16:21:49.153Z,12.22
2019-04-05T16:24:17.437Z,12.13
2019-04-05T16:26:45.714Z,12.25
2019-04-05T16:29:14.005Z,12.23
2019-04-05T16:31:42.307Z,12.08
2019-04-05T16:34:10.592Z,12.00
2019-04-05T16:36:38.880Z,11.82
2019-04-05T16:39:47.217Z,11.86
2019-04-05T16:42:15.624Z,11.85
2019-04-05T16:44:44.182Z,11.68
2019-04-05T16:49:59.795Z,11.52
2019-04-05T16:53:04.124Z,11.48
2019-04-05T16:55:51.562Z,11.47
2019-04-05T16:58:19.834Z,11.35
2019-04-05T17:00:48.200Z,11.37
2019-04-05T17:03:16.490Z,11.33
2019-04-05T17:05:44.796Z,11.35
2019-04-05T17:08:13.085Z,11.32
2019-04-05T17:10:43.821Z,11.31
2019-04-05T17:13:12.177Z,11.29
2019-04-05T17:15:40.482Z,11.30
2019-04-05T17:18:28.123Z,11.13
2019-04-05T17:20:56.402Z,11.07
2019-04-05T17:23:24.800Z,11.09
2019-04-05T17:26:30.497Z,11.17
2019-04-05T17:28:58.804Z,11.21
2019-04-05T17:31:27.146Z,11.22
2019-04-05T17:34:12.481Z,11.22
2019-04-05T17:36:41.040Z,11.24
2019-04-05T17:39:23.219Z,11.25
2019-04-05T17:41:51.490Z,11.22
2019-04-05T17:44:19.810Z,11.06
2019-04-05T17:46:48.101Z,10.89
2019-04-05T17:49:16.633Z,10.90
2019-04-05T17:51:44.987Z,10.77
2019-04-05T17:54:13.327Z,10.68
2019-04-05T17:57:19.090Z,10.70
2019-04-05T17:59:47.397Z,10.74
2019-04-05T18:02:15.766Z,10.77
2019-04-05T18:04:44.079Z,10.77
2019-04-05T18:07:12.393Z,10.83
2019-04-05T18:09:43.101Z,10.90
2019-04-05T18:12:11.480Z,10.86
2019-04-05T18:14:39.773Z,10.81
2019-04-05T18:17:08.792Z,10.86
2019-04-05T18:19:56.453Z,10.94
2019-04-05T18:22:24.757Z,10.91
2019-04-05T18:24:53.052Z,10.78
2019-04-05T18:27:21.369Z,10.75
2019-04-05T18:29:49.623Z,10.74
2019-04-05T18:32:17.914Z,10.73
2019-04-05T18:34:46.184Z,10.71
2019-04-05T18:37:14.513Z,10.65
2019-04-05T18:39:42.858Z,10.59
2019-04-05T18:42:11.241Z,10.47
2019-04-05T18:44:39.638Z,10.48
2019-04-05T18:47:24.799Z,10.51
2019-04-05T18:50:02.782Z,10.53
2019-04-05T18:52:23.141Z,10.49
2019-04-05T18:54:51.447Z,10.57
2019-04-05T18:57:19.766Z,10.62
2019-04-05T18:59:48.114Z,10.45
2019-04-05T19:04:59.888Z,10.26
2019-04-05T19:07:28.168Z,10.22
2019-04-05T19:09:56.471Z,10.24
2019-04-05T19:12:24.737Z,10.23
2019-04-05T19:15:06.669Z,10.29
2019-04-05T19:17:35.043Z,10.30
2019-04-05T19:20:03.456Z,10.32
2019-04-05T19:22:31.745Z,10.27
2019-04-05T19:25:00.037Z,10.22
2019-04-05T19:27:28.368Z,10.19
2019-04-05T19:29:56.650Z,10.24
2019-04-05T19:50:12.051Z,10.16
2019-04-05T19:52:40.337Z,10.13
2019-04-05T19:55:08.777Z,10.09
2019-04-05T19:57:37.059Z,10.05
2019-04-05T20:00:42.614Z,9.98
2019-04-05T20:03:10.894Z,9.87
2019-04-05T20:05:39.187Z,9.81
2019-04-05T20:08:07.487Z,9.88
2019-04-05T20:10:35.767Z,9.80
2019-04-05T20:13:04.044Z,9.73
2019-04-05T20:15:32.341Z,9.80
2019-04-05T20:18:00.634Z,9.84
2019-04-05T20:20:29.690Z,9.93
2019-04-05T20:22:57.977Z,9.92
2019-04-05T20:25:26.249Z,9.85
2019-04-05T20:27:54.546Z,9.82
2019-04-05T20:30:22.825Z,9.84
2019-04-05T20:32:51.112Z,9.83
2019-04-05T20:35:19.383Z,9.86
2019-04-05T20:37:47.668Z,9.91
2019-04-05T20:40:15.951Z,9.93
2019-04-05T20:42:44.321Z,9.85
2019-04-05T20:45:12.773Z,9.76
2019-04-05T20:47:41.056Z,9.88
2019-04-05T20:50:09.354Z,9.88
2019-04-05T20:52:37.640Z,9.81
2019-04-05T20:55:43.716Z,9.84
2019-04-05T20:58:11.986Z,9.79
2019-04-05T21:00:40.289Z,9.69
2019-04-05T21:03:08.568Z,9.76
2019-04-05T21:05:36.856Z,9.78
2019-04-05T21:08:05.248Z,9.82
2019-04-05T21:10:33.519Z,9.89
2019-04-05T21:13:01.819Z,9.90
2019-04-05T21:15:30.110Z,9.88
2019-04-05T21:18:17.732Z,9.70
2019-04-05T21:20:46.187Z,9.70
2019-04-05T21:23:14.458Z,9.70
2019-04-05T21:25:42.742Z,9.81
2019-04-05T21:28:11.029Z,9.78
2019-04-05T21:30:39.308Z,9.81
2019-04-05T21:33:07.587Z,9.84
2019-04-05T21:35:35.870Z,9.77
2019-04-05T21:38:04.166Z,9.81
2019-04-05T21:40:32.512Z,9.75
2019-04-05T21:43:00.788Z,9.68
2019-04-05T21:45:29.060Z,9.69
2019-04-05T21:47:57.353Z,9.61
2019-04-05T21:50:25.668Z,9.43
2019-04-05T21:52:53.971Z,9.29
2019-04-05T21:55:22.240Z,9.26
2019-04-05T21:57:50.597Z,9.20
2019-04-05T22:00:57.345Z,9.04
2019-04-05T22:03:25.619Z,9.04
2019-04-05T22:05:53.892Z,8.95
2019-04-05T22:08:22.176Z,8.86
2019-04-05T22:10:50.465Z,8.69
2019-04-05T22:13:18.728Z,8.56
2019-04-05T22:15:47.038Z,8.55
2019-04-05T22:18:15.328Z,8.47
2019-04-05T22:20:43.610Z,8.41
2019-04-05T22:23:11.902Z,8.40
2019-04-05T22:25:40.179Z,8.36
2019-04-05T22:28:08.444Z,8.26
2019-04-05T22:30:36.801Z,8.17
2019-04-05T22:33:05.112Z,8.11
2019-04-05T22:35:33.385Z,8.08
2019-04-05T22:38:01.667Z,8.09
2019-04-05T22:40:29.965Z,8.06
2019-04-05T22:42:58.225Z,8.03
2019-04-05T22:45:26.506Z,8.07
2019-04-05T22:47:54.779Z,8.02
2019-04-05T22:50:40.276Z,7.88
2019-04-05T22:53:08.547Z,7.81
2019-04-05T22:55:36.823Z,7.85
2019-04-05T22:58:05.095Z,7.77
2019-04-05T23:00:33.379Z,7.68
2019-04-05T23:03:01.646Z,7.46
2019-04-05T23:05:29.917Z,7.26
2019-04-05T23:07:58.181Z,6.99
2019-04-05T23:10:26.459Z,6.96
2019-04-05T23:12:54.733Z,6.96
2019-04-05T23:15:23.045Z,6.81
2019-04-05T23:17:51.301Z,6.74
2019-04-05T23:20:19.576Z,6.85
2019-04-05T23:22:47.862Z,7.03
2019-04-05T23:25:21.733Z,7.12
2019-04-05T23:27:46.148Z,7.06
2019-04-05T23:30:51.970Z,7.16
2019-04-05T23:33:20.267Z,7.18
2019-04-05T23:35:48.543Z,7.20
2019-04-05T23:38:16.814Z,7.23
2019-04-05T23:40:45.117Z,7.20
2019-04-05T23:43:13.405Z,7.10
2019-04-05T23:45:41.685Z,7.05
2019-04-05T23:48:09.974Z,7.03
2019-04-05T23:50:38.270Z,7.01
2019-04-05T23:53:06.565Z,6.99
2019-04-05T23:55:34.850Z,6.96
2019-04-05T23:58:03.122Z,6.86
